International Virtual Aviation Organisation

Russian Federation and Kazakhstan MCD

 

Карточка аэропорта UIBB

Внимание!
Информация на этой странице в стадии наполнения.
Если вы не увидели какой-то информации, или заметили неточность - пожалуйста сообщите нам!
Спасибо!
Команда RU-STAFF
Название аэропортаБратск
Название аэропорта (англ.)Bratsk
Превышение1598 ft. (487.1 m.)
Координаты56°22.236', 101°41.94'
Высота перехода900m
Эшелон переходаQFE>=715mm:FL060; QFE<715=>688:FL070; QFE<688:FL080
Коды ответчика3301-3327
Зона ОрВДИркутск РПИ (UIII)
Данные METARUIBB 191600Z AUTO 31002MPS 280V340 4600 // ///064/// 13/13 Q1015 RMK QFE718/0957
Проноз погоды (TAF)UIBB 191400Z 1915/2015 33003MPS 3100 -SHRA FU FEW001 BKN016CB FM191800 30003MPS 0300 FG FU VV001 TEMPO 1918/2003 3100 BR FU FEW002 BKN011CB FM200300 30005MPS 5000 -SHRA FU BKN016CB
NOTAMshow/hide NOTAM
AWOS   TABLE

Информация о ВПП


Диспетчерские позиции

Позывной Наименование органа УВД Частота
UIBB_APPБратск-Подход118.1
UIBB_GNDБратск-Руление121.8



Спутниковое изображение